Time;durP1;ratioP1;P1;durP2;ratioP2;P2;SDS_P1;SDS_P2;PMS_P1;PMS_P2;Temp;Humidity;BMP_temperature;BMP_pressure;BME280_temperature;BME280_humidity;BME280_pressure;Samples;Min_cycle;Max_cycle;Signal;HPM_P1;HPM_P2
2022/11/15 09:22:33;;;;;;;27.65;17.50;;;;;;;6.81;73.77;101355.80;1837836;77;28080;-60
2022/11/15 09:26:00;;;;;;;25.65;14.13;;;;;;;6.86;73.67;101351.34;1730633;81;21189;-60
2022/11/15 09:29:23;;;;;;;20.82;13.10;;;;;;;6.96;73.48;101356.39;1679695;84;21246;-62
2022/11/15 09:32:47;;;;;;;17.87;12.53;;;;;;;7.02;73.45;101342.25;1653923;85;21228;-60
2022/11/15 09:36:11;;;;;;;21.13;12.60;;;;;;;7.07;73.38;101337.28;1664560;85;21581;-60
2022/11/15 09:39:36;;;;;;;20.43;12.05;;;;;;;7.18;73.48;101331.27;1730034;82;21527;-60
2022/11/15 09:43:14;;;;;;;19.07;12.68;;;;;;;7.37;73.71;101319.16;1730553;81;21249;-59
2022/11/15 09:47:03;;;;;;;24.57;15.23;;;;;;;7.59;73.75;101308.12;1726900;81;21213;-61
2022/11/15 09:50:19;;;;;;;20.70;13.28;;;;;;;7.79;73.64;101291.88;1715904;83;21192;-60
2022/11/15 09:53:33;;;;;;;24.40;13.38;;;;;;;7.96;73.54;101287.17;1699090;83;21236;-60
2022/11/15 09:56:41;;;;;;;20.95;11.73;;;;;;;8.18;73.60;101282.36;1697182;83;21261;-59
2022/11/15 10:00:16;;;;;;;18.87;11.63;;;;;;;8.43;73.63;101274.22;1670557;84;21223;-60
2022/11/15 10:03:38;;;;;;;15.55;10.15;;;;;;;8.64;73.61;101264.91;1658565;84;21202;-63
2022/11/15 10:06:50;;;;;;;17.12;9.83;;;;;;;8.75;73.35;101266.13;1650834;84;21201;-63
2022/11/15 10:10:41;;;;;;;14.85;10.50;;;;;;;8.81;73.30;101262.86;1648386;84;21245;-64
2022/11/15 10:13:53;;;;;;;17.60;10.80;;;;;;;8.84;73.25;101265.79;1647856;86;21292;-63
2022/11/15 10:17:08;;;;;;;12.88;8.75;;;;;;;8.87;73.22;101260.91;1641406;86;21229;-63
2022/11/15 10:20:32;;;;;;;16.05;9.48;;;;;;;8.90;73.22;101259.25;1642203;86;21749;-62
2022/11/15 10:23:39;;;;;;;13.83;8.48;;;;;;;8.97;73.25;101270.47;1643891;86;21220;-63
2022/11/15 10:26:45;;;;;;;15.68;9.33;;;;;;;9.06;73.18;101268.23;1611896;87;21245;-62
2022/11/15 10:29:53;;;;;;;12.82;8.58;;;;;;;9.16;73.13;101273.19;1642230;86;21802;-62
2022/11/15 10:33:00;;;;;;;13.75;8.63;;;;;;;9.19;72.86;101267.44;1642567;87;21229;-62
2022/11/15 10:36:25;;;;;;;13.35;7.95;;;;;;;9.22;72.90;101261.67;1624276;87;21237;-63
2022/11/15 10:39:30;;;;;;;12.80;7.90;;;;;;;9.33;72.91;101254.69;1643113;86;21253;-62
2022/11/15 10:42:37;;;;;;;11.60;7.15;;;;;;;9.42;72.76;101251.06;1655418;86;21564;-63
2022/11/15 10:45:45;;;;;;;12.40;7.28;;;;;;;9.44;72.68;101249.55;1643043;86;21415;-63
2022/11/15 10:48:49;;;;;;;13.25;7.22;;;;;;;9.45;72.65;101243.09;1642523;87;21798;-62
2022/11/15 10:52:00;;;;;;;12.75;7.35;;;;;;;9.48;72.63;101236.80;1642750;86;21245;-62
2022/11/15 10:55:13;;;;;;;12.78;9.15;;;;;;;9.58;72.60;101223.97;1627273;86;21904;-62
2022/11/15 10:58:46;;;;;;;18.30;8.20;;;;;;;9.69;72.46;101229.26;1645096;84;21225;-63
2022/11/15 11:02:48;;;;;;;11.08;7.80;;;;;;;9.84;72.37;101220.06;1663100;86;21225;-62
2022/11/15 11:05:56;;;;;;;14.13;8.25;;;;;;;9.88;72.15;101208.66;1657997;86;21398;-62
2022/11/15 11:09:10;;;;;;;18.35;9.13;;;;;;;9.79;71.93;101204.61;1629622;87;21423;-64
2022/11/15 11:12:20;;;;;;;13.20;8.58;;;;;;;9.70;71.96;101188.63;1644360;86;21210;-62
2022/11/15 11:15:28;;;;;;;12.28;7.53;;;;;;;9.64;72.08;101182.89;1644251;87;21292;-61
2022/11/15 11:18:41;;;;;;;12.00;7.33;;;;;;;9.59;72.21;101179.25;1643904;86;21341;-61
2022/11/15 11:22:04;;;;;;;12.50;6.67;;;;;;;9.50;72.25;101176.02;1643583;86;21309;-61
2022/11/15 11:25:32;;;;;;;10.35;6.22;;;;;;;9.39;72.34;101161.18;1644103;85;21398;-62
2022/11/15 11:29:17;;;;;;;13.20;8.58;;;;;;;9.32;72.47;101157.34;1669924;86;21210;-62
2022/11/15 11:32:58;;;;;;;18.30;10.60;;;;;;;9.32;72.53;101134.61;1622880;86;21232;-62
2022/11/15 11:36:18;;;;;;;;;;;;;;;9.37;72.63;101136.39;1656491;86;21237;-64
2022/11/15 11:39:34;;;;;;;14.05;9.03;;;;;;;9.40;72.57;101140.19;1671474;84;20223;-62
2022/11/15 11:43:01;;;;;;;21.70;9.83;;;;;;;9.39;72.62;101138.48;1670409;86;21741;-63
2022/11/15 11:46:26;;;;;;;14.35;9.43;;;;;;;9.39;72.62;101138.48;1669821;86;21233;-62
2022/11/15 11:49:45;;;;;;;17.37;10.63;;;;;;;9.38;72.61;101132.64;1643344;86;21789;-59
2022/11/15 11:53:12;;;;;;;18.40;10.43;;;;;;;9.41;72.63;101129.11;1648633;86;21225;-60
2022/11/15 11:56:35;;;;;;;22.22;13.45;;;;;;;9.44;72.65;101129.30;1670698;84;21383;-59
2022/11/15 11:59:53;;;;;;;17.73;9.75;;;;;;;9.42;72.57;101116.31;1664697;84;21403;-60
2022/11/15 12:03:29;;;;;;;15.63;9.83;;;;;;;9.41;72.60;101116.81;1644033;87;21721;-59
2022/11/15 12:06:40;;;;;;;14.53;9.65;;;;;;;9.47;72.63;101103.03;1643624;86;21301;-60
2022/11/15 12:10:16;;;;;;;14.83;9.35;;;;;;;9.50;72.59;101104.96;1624852;87;21237;-60
2022/11/15 12:13:23;;;;;;;16.30;9.95;;;;;;;9.48;72.48;101105.61;1643293;86;21249;-60
2022/11/15 12:16:17;;;;;;;14.35;8.80;;;;;;;9.39;72.40;101103.80;1643715;86;21301;-59
2022/11/15 12:19:11;;;;;;;19.65;11.38;;;;;;;9.35;72.38;101097.42;1643142;86;21221;-60
2022/11/15 12:22:26;;;;;;;14.43;8.30;;;;;;;9.27;72.41;101100.04;1643708;86;21229;-60
2022/11/15 12:25:48;;;;;;;17.48;10.13;;;;;;;9.18;72.38;101100.42;1656005;84;21273;-60
2022/11/15 12:29:10;;;;;;;14.38;8.70;;;;;;;9.08;72.35;101105.91;1646671;86;21241;-60
2022/11/15 12:32:40;;;;;;;13.08;8.08;;;;;;;8.94;72.31;101095.47;1646291;84;21273;-60
2022/11/15 12:35:50;;;;;;;12.33;8.05;;;;;;;8.83;72.32;101090.19;1717476;81;21235;-59
2022/11/15 12:39:06;;;;;;;12.33;8.40;;;;;;;8.76;72.35;101081.37;1734916;81;21200;-59
2022/11/15 12:42:17;;;;;;;16.62;9.48;;;;;;;8.72;72.37;101077.23;1728846;81;21228;-59
2022/11/15 12:45:40;;;;;;;24.52;15.63;;;;;;;8.67;72.39;101065.89;1706835;83;21268;-60
2022/11/15 12:48:51;;;;;;;23.70;11.73;;;;;;;8.64;72.41;101060.73;1675405;84;21228;-60
2022/11/15 12:52:05;;;;;;;21.60;12.10;;;;;;;8.61;72.26;101052.84;1717136;83;21240;-61
2022/11/15 12:55:14;;;;;;;22.15;13.25;;;;;;;8.56;72.18;101049.16;1665331;84;21335;-60
2022/11/15 12:58:55;;;;;;;18.07;9.48;;;;;;;8.57;72.26;101050.03;1709902;81;21838;-59
2022/11/15 13:02:06;;;;;;;17.35;9.10;;;;;;;8.56;72.20;101040.14;1648632;86;21764;-61
2022/11/15 13:05:27;;;;;;;19.62;8.83;;;;;;;8.51;72.09;101043.80;1622342;86;21323;-59
2022/11/15 13:08:52;;;;;;;18.55;8.85;;;;;;;8.50;72.18;101044.82;1717134;81;21297;-61
2022/11/15 13:11:58;;;;;;;16.27;9.20;;;;;;;8.49;72.20;101037.63;1670077;85;21226;-61
2022/11/15 13:15:08;;;;;;;18.77;10.08;;;;;;;8.52;72.32;101027.28;1723124;81;21208;-60
2022/11/15 13:18:32;;;;;;;19.52;10.00;;;;;;;8.56;72.41;101030.59;1719684;83;21268;-60
2022/11/15 13:25:03;;;;;;;18.95;9.48;;;;;;;8.57;72.44;101012.70;1720872;80;21278;-60
2022/11/15 13:28:20;;;;;;;25.40;10.18;;;;;;;8.55;72.34;101007.02;1701276;83;21244;-60
2022/11/15 13:31:44;;;;;;;16.27;9.30;;;;;;;8.48;72.24;100986.80;1679081;85;22052;-60
2022/11/15 13:34:54;;;;;;;17.02;8.03;;;;;;;8.36;72.07;100981.14;1710310;81;21213;-59
2022/11/15 13:38:01;;;;;;;17.95;10.25;;;;;;;8.23;71.92;100976.00;1725357;82;21825;-58
2022/11/15 13:41:08;;;;;;;16.70;9.45;;;;;;;8.10;71.83;100975.94;1675991;83;21281;-59
2022/11/15 13:44:19;;;;;;;21.87;11.12;;;;;;;7.98;71.82;100981.16;1724246;81;21254;-60
2022/11/15 13:47:28;;;;;;;21.40;13.18;;;;;;;7.90;72.00;100964.17;1675764;84;21260;-63
2022/11/15 13:50:39;;;;;;;19.20;13.53;;;;;;;7.88;72.12;100950.34;1729373;81;21244;-60
2022/11/15 13:53:53;;;;;;;20.40;13.03;;;;;;;7.83;72.09;100948.55;1728735;81;21800;-62
2022/11/15 13:57:01;;;;;;;21.75;11.85;;;;;;;7.77;72.10;100960.88;1721364;83;21220;-61
2022/11/15 14:00:13;;;;;;;23.85;13.38;;;;;;;7.75;72.23;100968.36;1700109;83;21796;-60
2022/11/15 14:03:31;;;;;;;20.10;12.00;;;;;;;7.77;72.37;100955.42;1686693;81;21200;-61
2022/11/15 14:06:37;;;;;;;18.42;11.28;;;;;;;7.78;72.43;100954.45;1699096;81;21610;-61
2022/11/15 14:09:46;;;;;;;25.62;13.85;;;;;;;7.79;72.45;100948.47;1715237;81;21204;-62
2022/11/15 14:12:59;;;;;;;31.42;14.28;;;;;;;7.79;72.44;100948.47;1710720;81;21216;-62
2022/11/15 14:16:27;;;;;;;23.45;13.38;;;;;;;7.78;72.43;100944.91;1676197;84;21280;-61
2022/11/15 14:19:39;;;;;;;33.63;16.52;;;;;;;7.76;72.34;100940.58;1725794;81;21208;-62
2022/11/15 14:22:47;;;;;;;34.48;18.48;;;;;;;7.73;72.35;100934.06;1680856;85;21224;-61
2022/11/15 14:26:02;;;;;;;30.50;16.42;;;;;;;7.71;72.36;100937.46;1707401;79;22056;-61
2022/11/15 14:29:35;;;;;;;31.37;16.57;;;;;;;7.71;72.36;100937.46;1713171;81;21276;-61
2022/11/15 14:32:57;;;;;;;32.38;15.65;;;;;;;7.68;72.33;100939.95;1674158;84;21229;-61
2022/11/15 14:36:12;;;;;;;70.75;39.48;;;;;;;7.65;72.31;100938.87;1661328;86;21262;-61
2022/11/15 14:39:19;;;;;;;38.10;23.22;;;;;;;7.58;72.34;100930.41;1702875;84;21216;-61
2022/11/15 14:42:25;;;;;;;63.00;35.08;;;;;;;7.53;72.30;100925.05;1702436;84;21523;-62
2022/11/15 14:45:34;;;;;;;81.37;46.23;;;;;;;7.48;72.32;100932.78;1703499;82;21185;-60
2022/11/15 14:48:42;;;;;;;44.63;27.35;;;;;;;7.43;72.41;100917.38;1704540;84;21208;-61
2022/11/15 14:51:47;;;;;;;28.85;17.60;;;;;;;7.41;72.42;100909.34;1707402;81;22081;-60
2022/11/15 14:54:54;;;;;;;29.65;17.00;;;;;;;7.41;72.42;100906.62;1690950;84;21223;-61
2022/11/15 14:58:03;;;;;;;30.57;17.55;;;;;;;7.40;72.37;100905.41;1689659;83;21775;-61
2022/11/15 15:01:09;;;;;;;31.57;17.15;;;;;;;7.40;72.36;100905.41;1731261;82;21295;-61
2022/11/15 15:04:18;;;;;;;27.87;14.65;;;;;;;7.39;72.37;100893.64;1731479;82;21777;-61
2022/11/15 15:07:24;;;;;;;28.47;17.02;;;;;;;7.40;72.33;100892.62;1718102;82;21193;-61
2022/11/15 15:10:30;;;;;;;34.23;18.02;;;;;;;7.39;72.27;100879.15;1695658;84;21794;-61
2022/11/15 15:13:37;;;;;;;39.85;18.07;;;;;;;7.37;72.25;100879.30;1678381;83;21204;-65
2022/11/15 15:16:44;;;;;;;24.18;14.53;;;;;;;7.34;72.16;100877.39;1730816;81;21204;-62
2022/11/15 15:19:50;;;;;;;22.37;12.93;;;;;;;7.31;72.12;100874.92;1716846;81;21204;-60
2022/11/15 15:22:56;;;;;;;23.70;14.70;;;;;;;7.29;72.08;100875.06;1672715;84;21223;-61
2022/11/15 15:26:03;;;;;;;22.62;12.70;;;;;;;7.26;72.10;100867.19;1697916;83;21207;-61
2022/11/15 15:29:09;;;;;;;23.73;14.63;;;;;;;7.25;72.11;100861.39;1726807;81;21204;-62
2022/11/15 15:32:19;;;;;;;36.53;19.17;;;;;;;7.23;72.08;100857.95;1705294;81;21804;-62
2022/11/15 15:35:23;;;;;;;34.80;18.48;;;;;;;7.21;72.03;100857.25;1688175;83;21270;-61
2022/11/15 15:38:29;;;;;;;33.73;18.10;;;;;;;7.18;71.99;100862.11;1663803;83;21215;-61
2022/11/15 15:41:35;;;;;;;29.25;15.83;;;;;;;7.15;72.00;100855.07;1703982;83;21235;-61
2022/11/15 15:44:40;;;;;;;30.50;15.70;;;;;;;7.14;72.04;100857.94;1704425;82;21288;-61
2022/11/15 15:47:44;;;;;;;24.35;12.78;;;;;;;7.15;72.14;100850.98;1704918;84;21205;-61
2022/11/15 15:50:52;;;;;;;22.40;13.72;;;;;;;7.17;72.16;100850.35;1704696;82;21244;-61
2022/11/15 15:53:59;;;;;;;23.60;14.13;;;;;;;7.17;72.17;100847.63;1707310;81;21299;-61
2022/11/15 15:57:04;;;;;;;23.62;13.10;;;;;;;7.18;72.17;100844.42;1732284;81;21239;-61
2022/11/15 16:00:14;;;;;;;37.38;19.73;;;;;;;7.18;72.20;100839.81;1731864;82;21657;-61
2022/11/15 16:03:20;;;;;;;36.05;22.05;;;;;;;7.16;72.18;100830.95;1718501;82;21212;-61
2022/11/15 16:06:44;;;;;;;28.52;15.93;;;;;;;7.15;72.23;100841.98;1732425;82;21839;-60
2022/11/15 16:10:02;;;;;;;26.27;14.83;;;;;;;7.13;72.18;100827.16;1684242;84;21257;-60
2022/11/15 16:13:08;;;;;;;26.65;15.38;;;;;;;7.10;72.15;100830.66;1690131;85;21204;-60
2022/11/15 16:16:17;;;;;;;21.05;13.53;;;;;;;7.03;72.14;100829.00;1733670;81;21231;-61
2022/11/15 16:19:25;;;;;;;26.90;14.35;;;;;;;7.01;72.15;100831.00;1729735;81;21209;-60
2022/11/15 16:22:31;;;;;;;24.35;13.68;;;;;;;6.96;72.07;100827.84;1721444;81;21255;-60
2022/11/15 16:26:03;;;;;;;26.75;15.30;;;;;;;6.92;72.10;100813.30;1732851;81;21212;-61
2022/11/15 16:29:09;;;;;;;32.63;19.60;;;;;;;6.90;72.14;100808.00;1681623;83;21237;-61
2022/11/15 16:32:15;;;;;;;26.02;16.35;;;;;;;6.90;72.14;100810.72;1725982;81;21714;-60
2022/11/15 16:35:24;;;;;;;23.55;13.88;;;;;;;6.89;72.15;100807.66;1733978;82;21228;-61
2022/11/15 16:38:32;;;;;;;23.52;13.25;;;;;;;6.88;72.17;100810.00;1733931;82;21335;-61
2022/11/15 16:41:39;;;;;;;18.02;12.58;;;;;;;6.87;72.11;100806.06;1733726;82;21772;-63
2022/11/15 16:44:45;;;;;;;18.05;12.15;;;;;;;6.84;72.07;100798.18;1733678;82;21323;-61
2022/11/15 16:47:50;;;;;;;21.50;13.32;;;;;;;6.83;72.13;100800.06;1727068;81;21753;-62
2022/11/15 16:50:56;;;;;;;18.00;11.75;;;;;;;6.86;72.22;100798.42;1726813;83;21193;-60
2022/11/15 16:54:03;;;;;;;30.88;14.35;;;;;;;6.86;72.18;100791.61;1727365;83;21181;-61
2022/11/15 16:57:08;;;;;;;21.37;12.30;;;;;;;6.85;72.15;100785.80;1727341;83;21799;-60
2022/11/15 17:00:19;;;;;;;18.65;11.73;;;;;;;6.82;72.12;100784.72;1727149;83;21272;-61
2022/11/15 17:03:20;;;;;;;24.27;12.13;;;;;;;6.79;72.17;100780.92;1721858;83;21236;-62
2022/11/15 17:06:25;;;;;;;24.40;14.30;;;;;;;6.79;72.23;100772.77;1726148;81;21304;-59
2022/11/15 17:09:33;;;;;;;24.92;13.72;;;;;;;6.81;72.21;100760.38;1726700;81;21327;-61
2022/11/15 17:12:38;;;;;;;24.02;12.40;;;;;;;6.81;72.12;100750.85;1734154;82;21192;-60
2022/11/15 17:15:45;;;;;;;17.10;11.18;;;;;;;6.78;72.02;100751.14;1734034;82;21347;-60
2022/11/15 17:18:56;;;;;;;18.87;9.98;;;;;;;6.75;71.88;100741.42;1734062;82;21196;-60
2022/11/15 17:22:03;;;;;;;15.60;9.90;;;;;;;6.70;71.74;100731.46;1715493;82;21652;-61
2022/11/15 17:25:10;;;;;;;23.67;12.23;;;;;;;6.68;71.76;100734.81;1704897;81;21733;-61
2022/11/15 17:28:17;;;;;;;33.95;20.43;;;;;;;6.69;71.88;100732.97;1695912;83;21814;-61
2022/11/15 17:31:24;;;;;;;29.12;15.90;;;;;;;6.71;72.02;100722.28;1696497;84;21228;-62
2022/11/15 17:34:30;;;;;;;26.17;13.90;;;;;;;6.77;72.11;100718.15;1703779;81;21197;-61
2022/11/15 17:37:36;;;;;;;23.15;13.18;;;;;;;6.81;72.20;100714.13;1686870;83;21222;-62
2022/11/15 17:40:43;;;;;;;18.73;12.68;;;;;;;6.85;72.21;100712.84;1690724;85;21208;-61
2022/11/15 17:43:53;;;;;;;24.32;15.20;;;;;;;6.87;72.18;100709.45;1733697;81;21217;-61
2022/11/15 17:47:00;;;;;;;18.23;13.65;;;;;;;6.87;72.06;100708.97;1732965;81;22089;-60
2022/11/15 17:50:05;;;;;;;17.87;12.13;;;;;;;6.88;72.03;100700.31;1716955;81;21197;-60
2022/11/15 17:53:12;;;;;;;15.35;10.18;;;;;;;6.90;72.05;100700.52;1691347;84;21273;-61
2022/11/15 17:56:23;;;;;;;15.68;10.53;;;;;;;6.92;72.05;100699.00;1686845;83;21298;-60
2022/11/15 17:59:31;;;;;;;15.00;10.40;;;;;;;6.93;72.08;100698.86;1722298;81;21589;-60
2022/11/15 18:02:38;;;;;;;18.70;12.18;;;;;;;6.91;72.05;100689.97;1700796;83;21223;-61
2022/11/15 18:05:44;;;;;;;14.75;11.35;;;;;;;6.91;72.05;100687.25;1690943;83;21231;-60
2022/11/15 18:08:52;;;;;;;17.55;11.80;;;;;;;6.90;72.01;100687.40;1733073;82;21188;-61
2022/11/15 18:11:57;;;;;;;16.42;10.63;;;;;;;6.88;71.96;100676.66;1685165;84;21229;-61
2022/11/15 18:15:03;;;;;;;16.02;10.63;;;;;;;6.88;71.98;100675.83;1691380;85;21215;-61
2022/11/15 18:18:09;;;;;;;15.43;10.98;;;;;;;6.89;71.98;100671.59;1734141;82;21329;-61
2022/11/15 18:21:20;;;;;;;15.48;10.53;;;;;;;6.87;71.92;100667.28;1730597;82;21216;-61
2022/11/15 18:24:26;;;;;;;17.55;10.72;;;;;;;6.87;71.91;100665.92;1711351;82;21204;-61
2022/11/15 18:27:32;;;;;;;14.45;10.60;;;;;;;6.85;71.89;100656.55;1708257;82;21200;-61
2022/11/15 18:30:38;;;;;;;14.80;9.53;;;;;;;6.85;71.89;100654.34;1668294;83;21233;-60
2022/11/15 18:33:43;;;;;;;15.03;10.05;;;;;;;6.87;71.91;100648.23;1736698;82;21326;-59
2022/11/15 18:36:49;;;;;;;13.98;9.80;;;;;;;6.89;71.88;100643.02;1681424;85;21721;-61
2022/11/15 18:39:55;;;;;;;13.80;9.25;;;;;;;6.88;71.88;100635.84;1741715;81;21724;-61
2022/11/15 18:43:03;;;;;;;14.28;9.50;;;;;;;6.90;71.95;100641.14;1741530;82;21195;-61
2022/11/15 18:46:17;;;;;;;15.45;10.53;;;;;;;6.89;71.93;100635.34;1742093;81;21799;-61
2022/11/15 18:49:23;;;;;;;14.73;10.23;;;;;;;6.89;71.93;100632.63;1682751;84;21231;-60
2022/11/15 18:52:31;;;;;;;16.55;9.55;;;;;;;6.87;71.94;100621.02;1682036;84;21235;-61
2022/11/15 18:55:37;;;;;;;16.15;10.80;;;;;;;6.87;71.90;100628.70;1682334;84;21259;-61
2022/11/15 18:58:47;;;;;;;17.42;11.93;;;;;;;6.86;71.96;100610.66;1643882;86;21357;-62
2022/11/15 19:01:55;;;;;;;14.98;10.10;;;;;;;6.86;71.93;100606.59;1653944;85;21302;-61
2022/11/15 19:05:02;;;;;;;17.52;11.33;;;;;;;6.85;71.94;100606.73;1654233;85;21198;-60
2022/11/15 19:08:11;;;;;;;28.10;17.62;;;;;;;6.86;72.02;100612.03;1654379;85;21876;-61
2022/11/15 19:11:22;;;;;;;20.00;12.18;;;;;;;6.87;72.03;100606.06;1653844;85;21244;-62
2022/11/15 19:14:29;;;;;;;13.98;9.85;;;;;;;6.86;72.07;100602.50;1654151;85;21304;-60
2022/11/15 19:17:36;;;;;;;16.73;9.30;;;;;;;6.88;72.07;100600.47;1654312;85;21223;-61
2022/11/15 19:20:43;;;;;;;14.87;9.55;;;;;;;6.90;72.11;100595.75;1654390;85;21243;-61
2022/11/15 19:23:48;;;;;;;15.03;8.58;;;;;;;6.91;72.10;100591.17;1654035;86;21264;-62
2022/11/15 19:26:56;;;;;;;13.48;8.83;;;;;;;6.91;72.08;100583.84;1653398;85;21240;-61
2022/11/15 19:30:03;;;;;;;14.50;8.70;;;;;;;6.93;72.06;100585.92;1654458;85;21224;-61
2022/11/15 19:33:09;;;;;;;21.52;9.50;;;;;;;6.94;71.97;100582.71;1661644;82;21243;-61
2022/11/15 19:36:19;;;;;;;15.38;8.85;;;;;;;6.93;71.88;100579.12;1697248;82;21227;-61
2022/11/15 19:39:21;;;;;;;15.18;9.35;;;;;;;6.92;71.87;100566.53;1718161;83;21838;-61
2022/11/15 19:42:15;;;;;;;13.98;9.23;;;;;;;6.92;71.87;100561.58;1694815;82;21219;-61
2022/11/15 19:45:01;;;;;;;15.43;9.80;;;;;;;6.92;71.88;100558.37;1718728;82;21251;-61
2022/11/15 19:47:55;;;;;;;17.37;9.78;;;;;;;6.93;71.83;100553.27;1718800;83;21254;-60
2022/11/15 19:51:03;;;;;;;21.07;13.13;;;;;;;6.93;71.83;100550.55;1718661;82;21196;-60
2022/11/15 19:54:12;;;;;;;18.10;10.15;;;;;;;6.93;71.89;100543.74;1679875;83;21204;-61
2022/11/15 19:57:19;;;;;;;14.83;9.95;;;;;;;6.92;71.93;100536.59;1703458;82;21275;-61
2022/11/15 20:00:27;;;;;;;15.68;9.98;;;;;;;6.93;71.94;100541.02;1718552;83;21215;-62
2022/11/15 20:03:33;;;;;;;14.47;9.53;;;;;;;6.92;71.93;100540.68;1718231;82;21224;-60
2022/11/15 20:06:42;;;;;;;16.23;10.10;;;;;;;6.92;71.96;100535.23;1737132;81;21243;-61
2022/11/15 20:09:49;;;;;;;18.87;10.38;;;;;;;6.93;72.03;100526.58;1747459;82;21204;-61
2022/11/15 20:12:58;;;;;;;17.40;10.68;;;;;;;6.92;71.95;100527.08;1727134;80;21176;-60
2022/11/15 20:16:05;;;;;;;19.55;10.50;;;;;;;6.92;71.98;100524.84;1708602;82;21228;-60
2022/11/15 20:19:14;;;;;;;17.40;9.98;;;;;;;6.93;72.02;100519.25;1746530;82;21386;-61
2022/11/15 20:22:20;;;;;;;18.35;9.88;;;;;;;6.94;72.03;100510.11;1746923;81;21189;-61
2022/11/15 20:25:26;;;;;;;20.77;10.85;;;;;;;6.96;72.03;100509.42;1746944;82;21255;-60
2022/11/15 20:28:35;;;;;;;15.05;10.03;;;;;;;6.95;71.97;100500.05;1725371;82;21192;-60
2022/11/15 20:31:42;;;;;;;17.62;10.82;;;;;;;6.95;71.99;100496.84;1746461;80;21338;-61
2022/11/15 20:34:51;;;;;;;17.02;9.90;;;;;;;6.97;72.02;100492.60;1739028;81;21354;-60
2022/11/15 20:37:59;;;;;;;15.30;9.93;;;;;;;6.98;72.04;100486.14;1739097;81;21365;-60
2022/11/15 20:41:05;;;;;;;17.75;10.80;;;;;;;6.96;71.98;100480.02;1739223;81;21239;-61
2022/11/15 20:44:11;;;;;;;22.30;10.50;;;;;;;6.93;71.92;100474.35;1738918;81;21397;-60
2022/11/15 20:47:19;;;;;;;16.23;9.80;;;;;;;6.90;71.91;100469.70;1738092;81;21245;-60
2022/11/15 20:50:28;;;;;;;18.30;10.60;;;;;;;6.89;71.92;100466.16;1737615;81;21201;-61
2022/11/15 20:53:37;;;;;;;16.30;10.55;;;;;;;6.90;72.02;100461.05;1721459;82;21323;-60
2022/11/15 20:56:43;;;;;;;16.17;9.45;;;;;;;6.93;72.08;100453.94;1734146;83;21347;-60
2022/11/15 20:59:49;;;;;;;16.65;10.72;;;;;;;6.94;72.09;100447.52;1735406;82;21316;-61
2022/11/15 21:03:07;;;;;;;18.07;11.68;;;;;;;6.96;72.09;100448.72;1690166;85;21362;-60
2022/11/15 21:06:14;;;;;;;16.67;10.45;;;;;;;6.98;72.15;100440.75;1665853;85;21236;-60
2022/11/15 21:12:44;;;;;;;25.00;15.25;;;;;;;7.01;72.18;100439.58;1715852;82;21215;-60
2022/11/15 21:15:49;;;;;;;18.62;11.57;;;;;;;7.00;72.22;100436.02;1710983;82;21220;-60
2022/11/15 21:18:55;;;;;;;19.35;11.15;;;;;;;7.02;72.22;100433.14;1726158;82;21322;-60
2022/11/15 21:22:02;;;;;;;20.17;11.60;;;;;;;7.00;72.13;100423.77;1730761;82;21188;-61
2022/11/15 21:25:09;;;;;;;18.07;10.60;;;;;;;6.99;72.15;100419.31;1740008;82;21192;-59
2022/11/15 21:28:17;;;;;;;16.75;11.33;;;;;;;7.00;72.24;100420.19;1738980;82;21330;-60
2022/11/15 21:31:23;;;;;;;17.90;10.82;;;;;;;7.00;72.21;100410.16;1718471;82;21307;-60
